Bookmark and Share
Track history (hours):
 

Torm Horizon

Last reported at 2014-Apr-23 10:19 UTC. Time now 2014-Apr-24 00:39 UTC.
Position N 37°05' E 011°34'.

Length 183 m; draft 8 m.

Type: Ship. MMSI: 220566000.

NotesDate/timePositionNaut miles runAvg speedWind from/ knotsBaromVisibWave heightAir tempDewpointWater temp
2014-Apr-23 10:19N 37°05' E 011°34'810.9
2014-Apr-23 09:33N 36°58' E 011°39'1111.4
2014-Apr-23 08:33N 36°48' E 011°46'1111.3
2014-Apr-23 07:33N 36°38' E 011°53'1111.4
2014-Apr-23 06:33N 36°27' E 011°56'1211.6
2014-Apr-23 05:33N 36°16' E 012°00'4 4.2
2014-Apr-23 04:33N 36°13' E 012°04'2 2.0
2014-Apr-23 03:33N 36°15' E 012°04'2 2.0
2014-Apr-23 02:33N 36°17' E 012°05'2 2.2
2014-Apr-23 01:33N 36°19' E 012°06'2 2.2
2014-Apr-23 00:33N 36°21' E 012°08'2 2.0
2014-Apr-22 23:33N 36°22' E 012°09'1 1.5
2014-Apr-22 22:33N 36°23' E 012°10'1 1.2
2014-Apr-22 21:33N 36°24' E 012°11'1 0.8
2014-Apr-22 20:33N 36°24' E 012°12'1 0.9
2014-Apr-22 19:33N 36°25' E 012°13'1 0.8
2014-Apr-22 18:33N 36°25' E 012°14'1 0.6
2014-Apr-22 17:33N 36°26' E 012°14'1 0.5
2014-Apr-22 16:33N 36°25' E 012°14'1 0.7
2014-Apr-22 15:33N 36°24' E 012°14'1 1.0
2014-Apr-22 14:33N 36°23' E 012°14'1 1.2
2014-Apr-22 13:31N 36°22' E 012°15'2 1.8
2014-Apr-22 12:32N 36°20' E 012°15'1 1.5
2014-Apr-22 11:33N 36°19' E 012°16'1 1.3
2014-Apr-22 10:33N 36°18' E 012°16'3 3.2
2014-Apr-22 09:33N 36°15' E 012°16'2613.2
2014-Apr-22 07:33N 35°49' E 012°09'1313.2
2014-Apr-22 06:33N 35°36' E 012°08'1313.2
2014-Apr-22 05:33N 35°23' E 012°08'1313.0
2014-Apr-22 04:33N 35°10' E 012°08'1313.0
2014-Apr-22 03:33N 34°57' E 012°08'1313.0
2014-Apr-22 02:33N 34°44' E 012°08'1110.7
2014-Apr-22 01:33N 34°34' E 012°02'1312.7
2014-Apr-22 00:33N 34°30' E 011°47'1312.9
2014-Apr-21 23:33N 34°26' E 011°32'1312.7
2014-Apr-21 22:33N 34°21' E 011°18'1312.8
2014-Apr-21 21:33N 34°17' E 011°04'1312.8
2014-Apr-21 20:33N 34°12' E 010°49'1313.0
2014-Apr-21 19:33N 34°08' E 010°34'1212.1
2014-Apr-21 18:33N 34°07' E 010°20'1211.7
2014-Apr-21 17:33N 34°14' E 010°08'4 0.1
2014-Apr-19 23:03N 34°18' E 010°09'0 0.0
2014-Apr-19 22:33N 34°18' E 010°09'0 0.0
2014-Apr-19 21:33N 34°18' E 010°09'0 0.0
2014-Apr-19 20:33N 34°18' E 010°09'0 0.0
2014-Apr-19 19:33N 34°18' E 010°09'0 0.0
2014-Apr-19 18:24N 34°18' E 010°09'  

Dump ship's entire track history

sailing weather and tide predictions

Torm Horizon — OYNM2 — position and weather